sensor_id;sensor_type;location;lat;lon;timestamp;P1;durP1;ratioP1;P2;durP2;ratioP2
72408;SDS011;60402;48.082;11.628;2022-07-29T00:00:18;2.47;;;0.75;;
72408;SDS011;60402;48.082;11.628;2022-07-29T00:02:44;1.40;;;0.77;;
72408;SDS011;60402;48.082;11.628;2022-07-29T00:05:09;1.02;;;0.70;;
72408;SDS011;60402;48.082;11.628;2022-07-29T00:07:36;1.10;;;0.70;;
72408;SDS011;60402;48.082;11.628;2022-07-29T00:10:01;1.67;;;0.70;;
72408;SDS011;60402;48.082;11.628;2022-07-29T00:12:27;2.50;;;0.80;;
72408;SDS011;60402;48.082;11.628;2022-07-29T00:14:55;2.38;;;0.77;;
72408;SDS011;60402;48.082;11.628;2022-07-29T00:17:22;1.65;;;0.60;;
72408;SDS011;60402;48.082;11.628;2022-07-29T00:19:48;1.92;;;0.90;;
72408;SDS011;60402;48.082;11.628;2022-07-29T00:22:13;1.98;;;0.98;;
72408;SDS011;60402;48.082;11.628;2022-07-29T00:24:39;1.65;;;1.00;;
72408;SDS011;60402;48.082;11.628;2022-07-29T00:27:04;1.60;;;0.90;;
72408;SDS011;60402;48.082;11.628;2022-07-29T00:29:29;3.22;;;0.90;;
72408;SDS011;60402;48.082;11.628;2022-07-29T00:31:55;1.95;;;0.93;;
72408;SDS011;60402;48.082;11.628;2022-07-29T00:34:20;1.77;;;0.95;;
72408;SDS011;60402;48.082;11.628;2022-07-29T00:37:04;2.08;;;0.90;;
72408;SDS011;60402;48.082;11.628;2022-07-29T00:39:30;2.20;;;0.80;;
72408;SDS011;60402;48.082;11.628;2022-07-29T00:41:55;2.17;;;1.00;;
72408;SDS011;60402;48.082;11.628;2022-07-29T00:44:20;3.00;;;0.90;;
72408;SDS011;60402;48.082;11.628;2022-07-29T00:46:46;2.78;;;1.13;;
72408;SDS011;60402;48.082;11.628;2022-07-29T00:49:11;2.17;;;0.98;;
72408;SDS011;60402;48.082;11.628;2022-07-29T00:51:37;2.72;;;1.08;;
72408;SDS011;60402;48.082;11.628;2022-07-29T00:54:03;2.03;;;0.90;;
72408;SDS011;60402;48.082;11.628;2022-07-29T00:56:30;2.45;;;1.02;;
72408;SDS011;60402;48.082;11.628;2022-07-29T00:58:57;2.03;;;0.88;;
72408;SDS011;60402;48.082;11.628;2022-07-29T01:01:23;2.58;;;1.10;;
72408;SDS011;60402;48.082;11.628;2022-07-29T01:03:48;2.03;;;0.98;;
72408;SDS011;60402;48.082;11.628;2022-07-29T01:06:14;1.85;;;1.02;;
72408;SDS011;60402;48.082;11.628;2022-07-29T01:08:41;2.08;;;0.93;;
72408;SDS011;60402;48.082;11.628;2022-07-29T01:11:07;2.38;;;1.10;;
72408;SDS011;60402;48.082;11.628;2022-07-29T01:13:33;1.50;;;0.90;;
72408;SDS011;60402;48.082;11.628;2022-07-29T01:16:10;2.45;;;0.90;;
72408;SDS011;60402;48.082;11.628;2022-07-29T01:18:44;2.53;;;0.82;;
72408;SDS011;60402;48.082;11.628;2022-07-29T01:29:34;1.45;;;0.82;;
72408;SDS011;60402;48.082;11.628;2022-07-29T01:32:05;1.38;;;0.80;;
72408;SDS011;60402;48.082;11.628;2022-07-29T01:37:26;1.45;;;0.70;;
72408;SDS011;60402;48.082;11.628;2022-07-29T01:40:24;1.42;;;0.70;;
72408;SDS011;60402;48.082;11.628;2022-07-29T01:43:04;1.73;;;0.85;;
72408;SDS011;60402;48.082;11.628;2022-07-29T01:45:42;1.77;;;0.80;;
72408;SDS011;60402;48.082;11.628;2022-07-29T01:48:13;1.10;;;0.80;;
72408;SDS011;60402;48.082;11.628;2022-07-29T01:50:42;1.33;;;0.80;;
72408;SDS011;60402;48.082;11.628;2022-07-29T01:53:12;2.03;;;0.70;;
72408;SDS011;60402;48.082;11.628;2022-07-29T01:55:46;2.55;;;0.80;;
72408;SDS011;60402;48.082;11.628;2022-07-29T01:58:14;1.40;;;0.70;;
72408;SDS011;60402;48.082;11.628;2022-07-29T02:00:43;2.08;;;0.70;;
72408;SDS011;60402;48.082;11.628;2022-07-29T02:05:38;1.58;;;0.80;;
72408;SDS011;60402;48.082;11.628;2022-07-29T02:08:06;2.38;;;0.90;;
72408;SDS011;60402;48.082;11.628;2022-07-29T02:10:33;2.65;;;1.00;;
72408;SDS011;60402;48.082;11.628;2022-07-29T02:13:00;2.30;;;0.80;;
72408;SDS011;60402;48.082;11.628;2022-07-29T02:15:28;2.00;;;1.00;;
72408;SDS011;60402;48.082;11.628;2022-07-29T02:18:01;2.17;;;0.90;;
72408;SDS011;60402;48.082;11.628;2022-07-29T02:20:29;1.65;;;0.73;;
72408;SDS011;60402;48.082;11.628;2022-07-29T02:22:57;1.77;;;0.90;;
72408;SDS011;60402;48.082;11.628;2022-07-29T02:25:24;1.20;;;0.80;;
72408;SDS011;60402;48.082;11.628;2022-07-29T02:27:52;1.25;;;0.75;;
72408;SDS011;60402;48.082;11.628;2022-07-29T02:30:20;1.70;;;0.80;;
72408;SDS011;60402;48.082;11.628;2022-07-29T02:32:48;1.45;;;0.80;;
72408;SDS011;60402;48.082;11.628;2022-07-29T02:35:16;1.77;;;0.80;;
72408;SDS011;60402;48.082;11.628;2022-07-29T02:37:42;1.85;;;0.90;;
72408;SDS011;60402;48.082;11.628;2022-07-29T02:40:11;1.77;;;0.98;;
72408;SDS011;60402;48.082;11.628;2022-07-29T02:42:39;1.60;;;0.80;;
72408;SDS011;60402;48.082;11.628;2022-07-29T02:45:07;1.20;;;0.80;;
72408;SDS011;60402;48.082;11.628;2022-07-29T02:47:35;2.15;;;0.93;;
72408;SDS011;60402;48.082;11.628;2022-07-29T02:55:29;2.40;;;1.00;;
72408;SDS011;60402;48.082;11.628;2022-07-29T02:58:02;2.03;;;1.00;;
72408;SDS011;60402;48.082;11.628;2022-07-29T03:00:34;1.63;;;0.80;;
72408;SDS011;60402;48.082;11.628;2022-07-29T03:03:03;1.73;;;0.80;;
72408;SDS011;60402;48.082;11.628;2022-07-29T03:05:32;1.05;;;0.73;;
72408;SDS011;60402;48.082;11.628;2022-07-29T03:07:58;1.38;;;0.75;;
72408;SDS011;60402;48.082;11.628;2022-07-29T03:10:27;2.58;;;0.90;;
72408;SDS011;60402;48.082;11.628;2022-07-29T03:12:56;3.65;;;1.00;;
72408;SDS011;60402;48.082;11.628;2022-07-29T03:15:22;2.10;;;0.90;;
72408;SDS011;60402;48.082;11.628;2022-07-29T03:17:49;2.00;;;1.05;;
72408;SDS011;60402;48.082;11.628;2022-07-29T03:20:16;2.85;;;0.90;;
72408;SDS011;60402;48.082;11.628;2022-07-29T03:22:42;2.00;;;1.02;;
72408;SDS011;60402;48.082;11.628;2022-07-29T03:25:11;2.13;;;0.95;;
72408;SDS011;60402;48.082;11.628;2022-07-29T03:27:38;1.83;;;0.80;;
72408;SDS011;60402;48.082;11.628;2022-07-29T03:30:04;1.80;;;0.82;;
72408;SDS011;60402;48.082;11.628;2022-07-29T03:32:30;2.95;;;1.00;;
72408;SDS011;60402;48.082;11.628;2022-07-29T03:34:55;4.50;;;1.25;;
72408;SDS011;60402;48.082;11.628;2022-07-29T03:37:20;2.70;;;0.93;;
72408;SDS011;60402;48.082;11.628;2022-07-29T03:39:46;3.17;;;1.10;;
72408;SDS011;60402;48.082;11.628;2022-07-29T03:42:14;1.90;;;1.02;;
72408;SDS011;60402;48.082;11.628;2022-07-29T03:44:41;1.88;;;0.90;;
72408;SDS011;60402;48.082;11.628;2022-07-29T03:47:09;2.22;;;0.95;;
72408;SDS011;60402;48.082;11.628;2022-07-29T03:49:36;2.55;;;1.30;;
72408;SDS011;60402;48.082;11.628;2022-07-29T03:52:02;2.38;;;1.17;;
72408;SDS011;60402;48.082;11.628;2022-07-29T03:54:29;3.28;;;1.20;;
72408;SDS011;60402;48.082;11.628;2022-07-29T03:56:54;1.65;;;0.80;;
72408;SDS011;60402;48.082;11.628;2022-07-29T03:59:24;4.03;;;1.20;;
72408;SDS011;60402;48.082;11.628;2022-07-29T04:01:50;2.60;;;1.00;;
72408;SDS011;60402;48.082;11.628;2022-07-29T04:04:16;2.45;;;1.00;;
72408;SDS011;60402;48.082;11.628;2022-07-29T04:06:43;1.90;;;1.00;;
72408;SDS011;60402;48.082;11.628;2022-07-29T04:09:11;2.50;;;1.10;;
72408;SDS011;60402;48.082;11.628;2022-07-29T04:11:38;2.28;;;1.08;;
72408;SDS011;60402;48.082;11.628;2022-07-29T04:14:04;1.90;;;1.00;;
72408;SDS011;60402;48.082;11.628;2022-07-29T04:16:30;3.05;;;1.20;;
72408;SDS011;60402;48.082;11.628;2022-07-29T04:18:55;2.85;;;0.90;;
72408;SDS011;60402;48.082;11.628;2022-07-29T04:21:21;1.85;;;0.95;;
72408;SDS011;60402;48.082;11.628;2022-07-29T04:23:46;3.45;;;1.20;;
72408;SDS011;60402;48.082;11.628;2022-07-29T04:26:15;3.05;;;1.20;;
72408;SDS011;60402;48.082;11.628;2022-07-29T04:28:41;2.30;;;1.20;;
72408;SDS011;60402;48.082;11.628;2022-07-29T04:31:07;3.70;;;1.20;;
72408;SDS011;60402;48.082;11.628;2022-07-29T04:33:33;2.75;;;1.17;;
72408;SDS011;60402;48.082;11.628;2022-07-29T04:35:58;3.13;;;1.30;;
72408;SDS011;60402;48.082;11.628;2022-07-29T04:38:23;4.27;;;2.13;;
72408;SDS011;60402;48.082;11.628;2022-07-29T04:40:49;3.03;;;1.30;;
72408;SDS011;60402;48.082;11.628;2022-07-29T04:43:14;2.40;;;1.05;;
72408;SDS011;60402;48.082;11.628;2022-07-29T04:45:40;2.55;;;1.08;;
72408;SDS011;60402;48.082;11.628;2022-07-29T04:48:06;3.42;;;1.20;;
72408;SDS011;60402;48.082;11.628;2022-07-29T04:50:31;2.45;;;1.10;;
72408;SDS011;60402;48.082;11.628;2022-07-29T04:52:57;1.92;;;1.13;;
72408;SDS011;60402;48.082;11.628;2022-07-29T04:55:22;3.78;;;1.30;;
72408;SDS011;60402;48.082;11.628;2022-07-29T04:57:48;2.75;;;1.20;;
72408;SDS011;60402;48.082;11.628;2022-07-29T05:00:13;2.78;;;1.30;;
72408;SDS011;60402;48.082;11.628;2022-07-29T05:02:39;4.05;;;1.30;;
72408;SDS011;60402;48.082;11.628;2022-07-29T05:05:04;2.75;;;1.08;;
72408;SDS011;60402;48.082;11.628;2022-07-29T05:07:29;3.15;;;1.30;;
72408;SDS011;60402;48.082;11.628;2022-07-29T05:09:55;3.70;;;1.20;;
72408;SDS011;60402;48.082;11.628;2022-07-29T05:12:22;2.00;;;1.10;;
72408;SDS011;60402;48.082;11.628;2022-07-29T05:14:48;2.72;;;1.30;;
72408;SDS011;60402;48.082;11.628;2022-07-29T05:17:13;3.70;;;1.33;;
72408;SDS011;60402;48.082;11.628;2022-07-29T05:19:39;3.33;;;1.20;;
72408;SDS011;60402;48.082;11.628;2022-07-29T05:22:04;3.78;;;1.35;;
72408;SDS011;60402;48.082;11.628;2022-07-29T05:24:30;3.22;;;1.30;;
72408;SDS011;60402;48.082;11.628;2022-07-29T05:26:55;3.15;;;1.20;;
72408;SDS011;60402;48.082;11.628;2022-07-29T05:29:21;1.83;;;1.08;;
72408;SDS011;60402;48.082;11.628;2022-07-29T05:31:46;4.13;;;1.67;;
72408;SDS011;60402;48.082;11.628;2022-07-29T05:34:11;2.72;;;1.30;;
72408;SDS011;60402;48.082;11.628;2022-07-29T05:36:37;3.13;;;1.13;;
72408;SDS011;60402;48.082;11.628;2022-07-29T05:39:02;2.38;;;1.20;;
72408;SDS011;60402;48.082;11.628;2022-07-29T05:41:27;2.13;;;1.05;;
72408;SDS011;60402;48.082;11.628;2022-07-29T05:43:53;4.10;;;1.58;;
72408;SDS011;60402;48.082;11.628;2022-07-29T05:46:19;3.15;;;1.30;;
72408;SDS011;60402;48.082;11.628;2022-07-29T05:48:44;2.90;;;1.40;;
72408;SDS011;60402;48.082;11.628;2022-07-29T05:51:09;2.60;;;1.13;;
72408;SDS011;60402;48.082;11.628;2022-07-29T05:53:35;1.92;;;1.02;;
72408;SDS011;60402;48.082;11.628;2022-07-29T05:56:02;3.17;;;1.25;;
72408;SDS011;60402;48.082;11.628;2022-07-29T05:58:29;2.38;;;1.10;;
72408;SDS011;60402;48.082;11.628;2022-07-29T06:00:54;2.28;;;1.15;;
72408;SDS011;60402;48.082;11.628;2022-07-29T06:03:24;2.35;;;1.13;;
72408;SDS011;60402;48.082;11.628;2022-07-29T06:05:49;2.38;;;1.20;;
72408;SDS011;60402;48.082;11.628;2022-07-29T06:08:15;2.42;;;1.20;;
72408;SDS011;60402;48.082;11.628;2022-07-29T06:10:40;3.15;;;1.38;;
72408;SDS011;60402;48.082;11.628;2022-07-29T06:13:05;3.53;;;1.10;;
72408;SDS011;60402;48.082;11.628;2022-07-29T06:15:31;1.92;;;1.00;;
72408;SDS011;60402;48.082;11.628;2022-07-29T06:17:56;2.17;;;1.02;;
72408;SDS011;60402;48.082;11.628;2022-07-29T06:20:22;2.95;;;1.25;;
72408;SDS011;60402;48.082;11.628;2022-07-29T06:22:47;3.15;;;1.23;;
72408;SDS011;60402;48.082;11.628;2022-07-29T06:25:12;3.88;;;1.08;;
72408;SDS011;60402;48.082;11.628;2022-07-29T06:27:38;2.30;;;1.20;;
72408;SDS011;60402;48.082;11.628;2022-07-29T06:30:03;3.03;;;1.00;;
72408;SDS011;60402;48.082;11.628;2022-07-29T06:32:31;3.03;;;1.30;;
72408;SDS011;60402;48.082;11.628;2022-07-29T06:34:57;2.10;;;1.10;;
72408;SDS011;60402;48.082;11.628;2022-07-29T06:37:22;2.20;;;1.15;;
72408;SDS011;60402;48.082;11.628;2022-07-29T06:39:47;3.57;;;1.23;;
72408;SDS011;60402;48.082;11.628;2022-07-29T06:42:12;2.25;;;1.23;;
72408;SDS011;60402;48.082;11.628;2022-07-29T06:44:38;3.20;;;1.60;;
72408;SDS011;60402;48.082;11.628;2022-07-29T06:47:03;2.92;;;1.45;;
72408;SDS011;60402;48.082;11.628;2022-07-29T06:49:28;4.63;;;1.45;;
72408;SDS011;60402;48.082;11.628;2022-07-29T06:51:54;2.95;;;1.23;;
72408;SDS011;60402;48.082;11.628;2022-07-29T06:54:20;3.67;;;1.13;;
72408;SDS011;60402;48.082;11.628;2022-07-29T06:56:46;1.95;;;1.00;;
72408;SDS011;60402;48.082;11.628;2022-07-29T06:59:12;1.67;;;1.05;;
72408;SDS011;60402;48.082;11.628;2022-07-29T07:01:38;2.45;;;1.13;;
72408;SDS011;60402;48.082;11.628;2022-07-29T07:04:05;2.50;;;1.20;;
72408;SDS011;60402;48.082;11.628;2022-07-29T07:06:31;2.72;;;1.30;;
72408;SDS011;60402;48.082;11.628;2022-07-29T07:08:57;3.13;;;1.15;;
72408;SDS011;60402;48.082;11.628;2022-07-29T07:11:22;1.90;;;1.10;;
72408;SDS011;60402;48.082;11.628;2022-07-29T07:13:48;3.05;;;1.30;;
72408;SDS011;60402;48.082;11.628;2022-07-29T07:16:13;3.03;;;1.10;;
72408;SDS011;60402;48.082;11.628;2022-07-29T07:18:38;2.08;;;1.00;;
72408;SDS011;60402;48.082;11.628;2022-07-29T07:21:04;2.28;;;1.10;;
72408;SDS011;60402;48.082;11.628;2022-07-29T07:23:30;2.58;;;1.20;;
72408;SDS011;60402;48.082;11.628;2022-07-29T07:25:56;2.00;;;1.10;;
72408;SDS011;60402;48.082;11.628;2022-07-29T07:28:21;2.60;;;1.13;;
72408;SDS011;60402;48.082;11.628;2022-07-29T07:30:46;1.55;;;0.82;;
72408;SDS011;60402;48.082;11.628;2022-07-29T07:33:12;1.60;;;0.98;;
72408;SDS011;60402;48.082;11.628;2022-07-29T07:35:38;1.50;;;0.80;;
72408;SDS011;60402;48.082;11.628;2022-07-29T07:38:03;1.85;;;1.10;;
72408;SDS011;60402;48.082;11.628;2022-07-29T07:40:30;2.72;;;1.00;;
72408;SDS011;60402;48.082;11.628;2022-07-29T07:42:56;1.40;;;0.90;;
72408;SDS011;60402;48.082;11.628;2022-07-29T07:45:21;1.23;;;0.80;;
72408;SDS011;60402;48.082;11.628;2022-07-29T07:47:47;1.13;;;0.80;;
72408;SDS011;60402;48.082;11.628;2022-07-29T07:50:12;2.17;;;1.00;;
72408;SDS011;60402;48.082;11.628;2022-07-29T07:52:50;2.33;;;0.90;;
72408;SDS011;60402;48.082;11.628;2022-07-29T07:55:17;2.03;;;1.10;;
72408;SDS011;60402;48.082;11.628;2022-07-29T07:57:43;1.33;;;0.80;;
72408;SDS011;60402;48.082;11.628;2022-07-29T08:00:10;0.93;;;0.63;;
72408;SDS011;60402;48.082;11.628;2022-07-29T08:02:37;2.33;;;0.88;;
72408;SDS011;60402;48.082;11.628;2022-07-29T08:05:03;1.33;;;0.90;;
72408;SDS011;60402;48.082;11.628;2022-07-29T08:07:29;1.50;;;0.77;;
72408;SDS011;60402;48.082;11.628;2022-07-29T08:09:55;1.58;;;0.75;;
72408;SDS011;60402;48.082;11.628;2022-07-29T08:12:20;1.50;;;0.70;;
72408;SDS011;60402;48.082;11.628;2022-07-29T08:14:45;1.27;;;0.90;;
72408;SDS011;60402;48.082;11.628;2022-07-29T08:17:11;1.00;;;0.80;;
72408;SDS011;60402;48.082;11.628;2022-07-29T08:19:36;2.20;;;0.90;;
72408;SDS011;60402;48.082;11.628;2022-07-29T08:22:02;2.03;;;1.20;;
72408;SDS011;60402;48.082;11.628;2022-07-29T08:24:27;2.10;;;0.90;;
72408;SDS011;60402;48.082;11.628;2022-07-29T08:27:08;2.38;;;0.90;;
72408;SDS011;60402;48.082;11.628;2022-07-29T08:29:35;3.33;;;1.05;;
72408;SDS011;60402;48.082;11.628;2022-07-29T08:32:01;1.65;;;0.90;;
72408;SDS011;60402;48.082;11.628;2022-07-29T08:34:26;1.58;;;0.85;;
72408;SDS011;60402;48.082;11.628;2022-07-29T08:36:51;1.33;;;0.95;;
72408;SDS011;60402;48.082;11.628;2022-07-29T08:39:17;2.65;;;0.98;;
72408;SDS011;60402;48.082;11.628;2022-07-29T08:41:42;2.55;;;1.10;;
72408;SDS011;60402;48.082;11.628;2022-07-29T08:44:08;2.35;;;0.93;;
72408;SDS011;60402;48.082;11.628;2022-07-29T08:46:34;2.20;;;1.20;;
72408;SDS011;60402;48.082;11.628;2022-07-29T08:49:03;1.92;;;1.20;;
72408;SDS011;60402;48.082;11.628;2022-07-29T08:51:28;2.40;;;1.08;;
72408;SDS011;60402;48.082;11.628;2022-07-29T08:53:55;2.50;;;1.10;;
72408;SDS011;60402;48.082;11.628;2022-07-29T08:56:21;3.10;;;1.40;;
72408;SDS011;60402;48.082;11.628;2022-07-29T08:58:48;2.92;;;1.40;;
72408;SDS011;60402;48.082;11.628;2022-07-29T09:01:16;1.45;;;1.02;;
72408;SDS011;60402;48.082;11.628;2022-07-29T09:03:45;4.20;;;1.10;;
72408;SDS011;60402;48.082;11.628;2022-07-29T09:06:14;2.65;;;1.20;;
72408;SDS011;60402;48.082;11.628;2022-07-29T09:08:42;3.08;;;1.15;;
72408;SDS011;60402;48.082;11.628;2022-07-29T09:11:07;2.13;;;1.10;;
72408;SDS011;60402;48.082;11.628;2022-07-29T09:13:33;1.63;;;1.10;;
72408;SDS011;60402;48.082;11.628;2022-07-29T09:15:59;2.40;;;1.23;;
72408;SDS011;60402;48.082;11.628;2022-07-29T09:18:32;2.50;;;1.33;;
72408;SDS011;60402;48.082;11.628;2022-07-29T09:21:00;2.97;;;1.60;;
72408;SDS011;60402;48.082;11.628;2022-07-29T09:24:00;1.90;;;1.13;;
72408;SDS011;60402;48.082;11.628;2022-07-29T09:26:29;3.58;;;1.40;;
72408;SDS011;60402;48.082;11.628;2022-07-29T09:28:55;2.60;;;1.30;;
72408;SDS011;60402;48.082;11.628;2022-07-29T09:31:32;2.22;;;1.25;;
72408;SDS011;60402;48.082;11.628;2022-07-29T09:33:59;4.20;;;1.42;;
72408;SDS011;60402;48.082;11.628;2022-07-29T09:36:25;3.35;;;1.45;;
72408;SDS011;60402;48.082;11.628;2022-07-29T09:38:58;2.92;;;1.60;;
72408;SDS011;60402;48.082;11.628;2022-07-29T09:41:28;3.30;;;1.30;;
72408;SDS011;60402;48.082;11.628;2022-07-29T09:43:54;2.50;;;1.33;;
72408;SDS011;60402;48.082;11.628;2022-07-29T09:46:21;3.08;;;1.50;;
72408;SDS011;60402;48.082;11.628;2022-07-29T09:49:05;5.55;;;1.70;;
72408;SDS011;60402;48.082;11.628;2022-07-29T09:51:34;2.80;;;1.50;;
72408;SDS011;60402;48.082;11.628;2022-07-29T09:53:59;2.67;;;1.60;;
72408;SDS011;60402;48.082;11.628;2022-07-29T09:56:40;3.85;;;1.45;;
72408;SDS011;60402;48.082;11.628;2022-07-29T09:59:07;2.83;;;1.60;;
72408;SDS011;60402;48.082;11.628;2022-07-29T10:01:33;4.55;;;1.80;;
72408;SDS011;60402;48.082;11.628;2022-07-29T10:04:00;2.92;;;1.50;;
72408;SDS011;60402;48.082;11.628;2022-07-29T10:06:25;3.47;;;1.80;;
72408;SDS011;60402;48.082;11.628;2022-07-29T10:08:50;2.75;;;1.50;;
72408;SDS011;60402;48.082;11.628;2022-07-29T10:11:17;3.70;;;1.70;;
72408;SDS011;60402;48.082;11.628;2022-07-29T10:13:44;3.10;;;1.52;;
72408;SDS011;60402;48.082;11.628;2022-07-29T10:16:11;2.60;;;1.50;;
72408;SDS011;60402;48.082;11.628;2022-07-29T10:18:38;3.28;;;1.65;;
72408;SDS011;60402;48.082;11.628;2022-07-29T10:21:05;3.10;;;1.60;;
72408;SDS011;60402;48.082;11.628;2022-07-29T10:23:30;2.85;;;1.60;;
72408;SDS011;60402;48.082;11.628;2022-07-29T10:25:57;3.20;;;1.80;;
72408;SDS011;60402;48.082;11.628;2022-07-29T10:28:22;3.70;;;1.80;;
72408;SDS011;60402;48.082;11.628;2022-07-29T10:30:51;3.42;;;1.70;;
72408;SDS011;60402;48.082;11.628;2022-07-29T10:43:53;4.07;;;2.10;;
72408;SDS011;60402;48.082;11.628;2022-07-29T10:46:19;3.30;;;1.75;;
72408;SDS011;60402;48.082;11.628;2022-07-29T10:59:45;3.17;;;1.70;;
72408;SDS011;60402;48.082;11.628;2022-07-29T11:05:00;4.20;;;1.90;;
72408;SDS011;60402;48.082;11.628;2022-07-29T11:07:29;4.03;;;2.00;;
72408;SDS011;60402;48.082;11.628;2022-07-29T11:15:18;3.55;;;1.90;;
72408;SDS011;60402;48.082;11.628;2022-07-29T11:23:30;4.85;;;1.92;;
72408;SDS011;60402;48.082;11.628;2022-07-29T11:31:19;3.70;;;1.70;;
72408;SDS011;60402;48.082;11.628;2022-07-29T11:34:19;4.18;;;1.75;;
72408;SDS011;60402;48.082;11.628;2022-07-29T11:40:16;3.50;;;1.80;;
72408;SDS011;60402;48.082;11.628;2022-07-29T11:47:23;3.50;;;1.60;;
72408;SDS011;60402;48.082;11.628;2022-07-29T11:49:53;3.05;;;1.48;;
72408;SDS011;60402;48.082;11.628;2022-07-29T11:52:20;3.95;;;1.50;;
72408;SDS011;60402;48.082;11.628;2022-07-29T11:54:49;2.72;;;1.60;;
72408;SDS011;60402;48.082;11.628;2022-07-29T11:57:18;3.47;;;1.60;;
72408;SDS011;60402;48.082;11.628;2022-07-29T11:59:45;3.72;;;1.70;;
72408;SDS011;60402;48.082;11.628;2022-07-29T12:02:12;3.92;;;1.60;;
72408;SDS011;60402;48.082;11.628;2022-07-29T12:04:54;3.03;;;1.63;;
72408;SDS011;60402;48.082;11.628;2022-07-29T12:07:28;2.75;;;1.60;;
72408;SDS011;60402;48.082;11.628;2022-07-29T12:09:57;2.72;;;1.40;;
72408;SDS011;60402;48.082;11.628;2022-07-29T12:12:23;4.60;;;1.80;;
72408;SDS011;60402;48.082;11.628;2022-07-29T12:14:48;2.75;;;1.70;;
72408;SDS011;60402;48.082;11.628;2022-07-29T12:17:27;4.78;;;2.17;;
72408;SDS011;60402;48.082;11.628;2022-07-29T12:19:55;4.35;;;1.60;;
72408;SDS011;60402;48.082;11.628;2022-07-29T12:22:26;5.60;;;1.75;;
72408;SDS011;60402;48.082;11.628;2022-07-29T12:24:53;3.70;;;1.70;;
72408;SDS011;60402;48.082;11.628;2022-07-29T12:27:20;3.40;;;1.98;;
72408;SDS011;60402;48.082;11.628;2022-07-29T12:29:58;9.18;;;4.30;;
72408;SDS011;60402;48.082;11.628;2022-07-29T12:32:32;4.35;;;1.92;;
72408;SDS011;60402;48.082;11.628;2022-07-29T12:35:09;3.13;;;1.45;;
72408;SDS011;60402;48.082;11.628;2022-07-29T12:37:37;5.03;;;1.70;;
72408;SDS011;60402;48.082;11.628;2022-07-29T12:40:04;4.55;;;1.67;;
72408;SDS011;60402;48.082;11.628;2022-07-29T12:42:31;3.35;;;1.33;;
72408;SDS011;60402;48.082;11.628;2022-07-29T12:44:57;4.28;;;2.55;;
72408;SDS011;60402;48.082;11.628;2022-07-29T12:47:23;2.53;;;1.30;;
72408;SDS011;60402;48.082;11.628;2022-07-29T12:49:48;3.53;;;1.45;;
72408;SDS011;60402;48.082;11.628;2022-07-29T12:52:29;3.38;;;1.60;;
72408;SDS011;60402;48.082;11.628;2022-07-29T12:54:56;2.67;;;1.40;;
72408;SDS011;60402;48.082;11.628;2022-07-29T12:57:22;3.58;;;1.58;;
72408;SDS011;60402;48.082;11.628;2022-07-29T13:00:10;3.25;;;1.55;;
72408;SDS011;60402;48.082;11.628;2022-07-29T13:05:02;1.98;;;1.23;;
72408;SDS011;60402;48.082;11.628;2022-07-29T13:07:30;3.47;;;1.48;;
72408;SDS011;60402;48.082;11.628;2022-07-29T13:10:19;3.63;;;1.20;;
72408;SDS011;60402;48.082;11.628;2022-07-29T13:15:32;2.63;;;1.25;;
72408;SDS011;60402;48.082;11.628;2022-07-29T13:17:58;3.83;;;1.75;;
72408;SDS011;60402;48.082;11.628;2022-07-29T13:20:25;2.72;;;1.60;;
72408;SDS011;60402;48.082;11.628;2022-07-29T13:22:54;3.28;;;1.50;;
72408;SDS011;60402;48.082;11.628;2022-07-29T13:25:25;2.58;;;1.40;;
72408;SDS011;60402;48.082;11.628;2022-07-29T13:27:52;4.38;;;1.60;;
72408;SDS011;60402;48.082;11.628;2022-07-29T13:30:19;4.13;;;1.50;;
72408;SDS011;60402;48.082;11.628;2022-07-29T13:32:46;2.92;;;1.40;;
72408;SDS011;60402;48.082;11.628;2022-07-29T13:35:12;3.58;;;1.70;;
72408;SDS011;60402;48.082;11.628;2022-07-29T13:37:38;4.68;;;1.60;;
72408;SDS011;60402;48.082;11.628;2022-07-29T13:40:06;3.20;;;1.63;;
72408;SDS011;60402;48.082;11.628;2022-07-29T13:42:32;2.63;;;1.63;;
72408;SDS011;60402;48.082;11.628;2022-07-29T13:44:58;3.70;;;1.65;;
72408;SDS011;60402;48.082;11.628;2022-07-29T13:47:24;4.18;;;1.70;;
72408;SDS011;60402;48.082;11.628;2022-07-29T13:49:49;4.97;;;1.80;;
72408;SDS011;60402;48.082;11.628;2022-07-29T13:52:15;3.50;;;1.60;;
72408;SDS011;60402;48.082;11.628;2022-07-29T13:54:41;5.25;;;1.80;;
72408;SDS011;60402;48.082;11.628;2022-07-29T13:57:06;3.63;;;1.90;;
72408;SDS011;60402;48.082;11.628;2022-07-29T13:59:32;4.53;;;1.88;;
72408;SDS011;60402;48.082;11.628;2022-07-29T14:01:58;3.08;;;1.63;;
72408;SDS011;60402;48.082;11.628;2022-07-29T14:04:23;4.68;;;1.88;;
72408;SDS011;60402;48.082;11.628;2022-07-29T14:06:49;3.42;;;1.98;;
72408;SDS011;60402;48.082;11.628;2022-07-29T14:09:15;5.47;;;1.98;;
72408;SDS011;60402;48.082;11.628;2022-07-29T14:11:40;5.43;;;2.08;;
72408;SDS011;60402;48.082;11.628;2022-07-29T14:14:06;4.55;;;2.25;;
72408;SDS011;60402;48.082;11.628;2022-07-29T14:16:31;3.13;;;1.83;;
72408;SDS011;60402;48.082;11.628;2022-07-29T14:18:57;3.13;;;1.90;;
72408;SDS011;60402;48.082;11.628;2022-07-29T14:21:22;3.22;;;1.85;;
72408;SDS011;60402;48.082;11.628;2022-07-29T14:23:48;3.97;;;1.80;;
72408;SDS011;60402;48.082;11.628;2022-07-29T14:26:13;5.45;;;1.80;;
72408;SDS011;60402;48.082;11.628;2022-07-29T14:28:38;6.15;;;2.10;;
72408;SDS011;60402;48.082;11.628;2022-07-29T14:31:04;4.30;;;1.88;;
72408;SDS011;60402;48.082;11.628;2022-07-29T14:33:29;4.88;;;2.13;;
72408;SDS011;60402;48.082;11.628;2022-07-29T14:35:54;3.30;;;1.80;;
72408;SDS011;60402;48.082;11.628;2022-07-29T14:38:20;3.42;;;1.63;;
72408;SDS011;60402;48.082;11.628;2022-07-29T14:40:45;4.90;;;1.90;;
72408;SDS011;60402;48.082;11.628;2022-07-29T14:43:11;7.43;;;1.95;;
72408;SDS011;60402;48.082;11.628;2022-07-29T14:45:38;4.35;;;1.90;;
72408;SDS011;60402;48.082;11.628;2022-07-29T14:48:04;3.90;;;1.70;;
72408;SDS011;60402;48.082;11.628;2022-07-29T14:50:29;3.70;;;1.83;;
72408;SDS011;60402;48.082;11.628;2022-07-29T14:52:55;2.60;;;1.42;;
72408;SDS011;60402;48.082;11.628;2022-07-29T14:55:20;3.13;;;1.77;;
72408;SDS011;60402;48.082;11.628;2022-07-29T14:57:46;3.67;;;1.80;;
72408;SDS011;60402;48.082;11.628;2022-07-29T15:00:12;4.13;;;1.58;;
72408;SDS011;60402;48.082;11.628;2022-07-29T15:02:37;11.18;;;2.05;;
72408;SDS011;60402;48.082;11.628;2022-07-29T15:05:05;4.70;;;1.70;;
72408;SDS011;60402;48.082;11.628;2022-07-29T15:07:30;3.40;;;1.65;;
72408;SDS011;60402;48.082;11.628;2022-07-29T15:09:56;3.38;;;1.58;;
72408;SDS011;60402;48.082;11.628;2022-07-29T15:12:21;2.60;;;1.40;;
72408;SDS011;60402;48.082;11.628;2022-07-29T15:14:46;3.55;;;2.15;;
72408;SDS011;60402;48.082;11.628;2022-07-29T15:17:12;6.30;;;2.70;;
72408;SDS011;60402;48.082;11.628;2022-07-29T15:19:37;5.18;;;2.40;;
72408;SDS011;60402;48.082;11.628;2022-07-29T15:22:03;9.73;;;5.22;;
72408;SDS011;60402;48.082;11.628;2022-07-29T15:24:29;8.45;;;1.80;;
72408;SDS011;60402;48.082;11.628;2022-07-29T15:26:55;2.45;;;1.45;;
72408;SDS011;60402;48.082;11.628;2022-07-29T15:29:20;5.78;;;1.60;;
72408;SDS011;60402;48.082;11.628;2022-07-29T15:31:46;3.28;;;1.52;;
72408;SDS011;60402;48.082;11.628;2022-07-29T15:34:12;2.15;;;1.48;;
72408;SDS011;60402;48.082;11.628;2022-07-29T15:36:39;3.83;;;1.50;;
72408;SDS011;60402;48.082;11.628;2022-07-29T15:39:05;3.42;;;1.55;;
72408;SDS011;60402;48.082;11.628;2022-07-29T15:41:31;2.35;;;1.30;;
72408;SDS011;60402;48.082;11.628;2022-07-29T15:43:56;2.58;;;1.50;;
72408;SDS011;60402;48.082;11.628;2022-07-29T15:46:21;4.15;;;1.60;;